Snoqualmie River: North Fork station

back to: Snoqualmie river
North Fork station Summary - (NOAA Hydrograph: SNQW1)
Latest reading:
Mon04/22 09:15 am 3.84 ft 607 cfs (steady)
Past 24hr max:
Sun04/21 09:15 am 4.13 ft 749 cfs
Forecasted crests: (published Mon 04/22/19 08:52 am)
Tue04/23 11:00 am 4.98 ft 1304 cfs
Fri04/26 05:00 am 3.82 ft 599 cfs
Mon04/29 11:00 am 3.54 ft 481 cfs
Wed05/01 11:00 am 3.9 ft 636 cfs

North Fork station Details

Latest Readings

Last 100 Readings:
Mon04/22 09:15 am 3.84 ft 607 cfs
Mon04/22 09:00 am 3.84 ft 607 cfs
Mon04/22 08:45 am 3.85 ft 611 cfs
Mon04/22 08:30 am 3.85 ft 611 cfs
Mon04/22 08:15 am 3.86 ft 616 cfs
Mon04/22 08:00 am 3.86 ft 616 cfs
Mon04/22 07:45 am 3.86 ft 616 cfs
Mon04/22 07:30 am 3.86 ft 616 cfs
Mon04/22 07:15 am 3.89 ft 629 cfs
Mon04/22 07:00 am 3.88 ft 625 cfs
Mon04/22 06:45 am 3.87 ft 620 cfs
Mon04/22 06:30 am 3.88 ft 625 cfs
Mon04/22 06:15 am 3.89 ft 629 cfs
Mon04/22 06:00 am 3.87 ft 620 cfs
Mon04/22 05:45 am 3.89 ft 629 cfs
Mon04/22 05:30 am 3.88 ft 625 cfs
Mon04/22 05:15 am 3.89 ft 629 cfs
Mon04/22 05:00 am 3.89 ft 629 cfs
Mon04/22 04:45 am 3.9 ft 634 cfs
Mon04/22 04:30 am 3.9 ft 634 cfs
Mon04/22 04:15 am 3.87 ft 620 cfs
Mon04/22 04:00 am 3.91 ft 638 cfs
Mon04/22 03:45 am 3.91 ft 638 cfs
Mon04/22 03:30 am 3.92 ft 643 cfs
Mon04/22 03:15 am 3.9 ft 634 cfs
Mon04/22 03:00 am 3.92 ft 643 cfs
Mon04/22 02:45 am 3.92 ft 643 cfs
Mon04/22 02:30 am 3.92 ft 643 cfs
Mon04/22 02:15 am 3.92 ft 643 cfs
Mon04/22 02:00 am 3.92 ft 643 cfs
Mon04/22 01:45 am 3.92 ft 643 cfs
Mon04/22 01:30 am 3.92 ft 643 cfs
Mon04/22 01:15 am 3.92 ft 643 cfs
Mon04/22 01:00 am 3.92 ft 643 cfs
Mon04/22 12:45 am 3.93 ft 648 cfs
Mon04/22 12:30 am 3.91 ft 638 cfs
Mon04/22 12:15 am 3.93 ft 648 cfs
Mon04/22 12:00 am 3.93 ft 648 cfs
Sun04/21 11:45 pm 3.92 ft 643 cfs
Sun04/21 11:30 pm 3.92 ft 643 cfs
Sun04/21 11:15 pm 3.92 ft 643 cfs
Sun04/21 11:00 pm 3.93 ft 648 cfs
Sun04/21 10:45 pm 3.93 ft 648 cfs
Sun04/21 10:30 pm 3.94 ft 652 cfs
Sun04/21 10:15 pm 3.94 ft 652 cfs
Sun04/21 10:00 pm 3.94 ft 652 cfs
Sun04/21 09:45 pm 3.94 ft 652 cfs
Sun04/21 09:30 pm 3.94 ft 652 cfs
Sun04/21 09:15 pm 3.94 ft 652 cfs
Sun04/21 09:00 pm 3.94 ft 652 cfs
Sun04/21 08:45 pm 3.94 ft 652 cfs
Sun04/21 08:30 pm 3.93 ft 648 cfs
Sun04/21 08:15 pm 3.94 ft 652 cfs
Sun04/21 08:00 pm 3.96 ft 662 cfs
Sun04/21 07:45 pm 3.97 ft 666 cfs
Sun04/21 07:30 pm 3.95 ft 657 cfs
Sun04/21 07:15 pm 3.95 ft 657 cfs
Sun04/21 07:00 pm 3.95 ft 657 cfs
Sun04/21 06:45 pm 3.97 ft 666 cfs
Sun04/21 06:30 pm 3.99 ft 676 cfs
Sun04/21 06:15 pm 3.98 ft 671 cfs
Sun04/21 06:00 pm 3.98 ft 671 cfs
Sun04/21 05:45 pm 3.97 ft 666 cfs
Sun04/21 05:30 pm 3.97 ft 666 cfs
Sun04/21 05:15 pm 3.98 ft 671 cfs
Sun04/21 05:00 pm 3.98 ft 671 cfs
Sun04/21 04:45 pm 4.0 ft 681 cfs
Sun04/21 04:30 pm 3.99 ft 676 cfs
Sun04/21 04:15 pm 4.0 ft 681 cfs
Sun04/21 04:00 pm 4.01 ft 686 cfs
Sun04/21 03:45 pm 4.0 ft 681 cfs
Sun04/21 03:30 pm 4.01 ft 686 cfs
Sun04/21 03:15 pm 4.03 ft 696 cfs
Sun04/21 03:00 pm 4.03 ft 696 cfs
Sun04/21 02:45 pm 4.02 ft 691 cfs
Sun04/21 02:30 pm 4.04 ft 701 cfs
Sun04/21 02:15 pm 4.04 ft 701 cfs
Sun04/21 02:00 pm 4.03 ft 696 cfs
Sun04/21 01:45 pm 4.04 ft 701 cfs
Sun04/21 01:30 pm 4.06 ft 712 cfs
Sun04/21 01:15 pm 4.06 ft 712 cfs
Sun04/21 01:00 pm 4.06 ft 712 cfs
Sun04/21 12:45 pm 4.07 ft 717 cfs
Sun04/21 12:30 pm 4.08 ft 722 cfs
Sun04/21 12:15 pm 4.06 ft 712 cfs
Sun04/21 12:00 pm 4.08 ft 722 cfs
Sun04/21 11:45 am 4.08 ft 722 cfs
Sun04/21 11:30 am 4.1 ft 733 cfs
Sun04/21 11:15 am 4.09 ft 728 cfs
Sun04/21 11:00 am 4.1 ft 733 cfs
Sun04/21 10:45 am 4.11 ft 738 cfs
Sun04/21 10:30 am 4.09 ft 728 cfs
Sun04/21 10:15 am 4.12 ft 744 cfs
Sun04/21 10:00 am 4.1 ft 733 cfs
Sun04/21 09:45 am 4.13 ft 749 cfs
Sun04/21 09:30 am 4.13 ft 749 cfs
Sun04/21 09:15 am 4.13 ft 749 cfs
Sun04/21 09:00 am 4.13 ft 749 cfs
Sun04/21 08:45 am 4.13 ft 749 cfs
Sun04/21 08:30 am 4.15 ft 760 cfs

Latest Forecasts

Currently Forecasted Readings:
Mon04/22 11:00 am 3.83 ft 604 cfs
Mon04/22 05:00 pm 3.81 ft 594 cfs
Mon04/22 11:00 pm 4.07 ft 719 cfs
Tue04/23 05:00 am 4.54 ft 993 cfs
Tue04/23 11:00 am 4.98 ft 1304 cfs
Tue04/23 05:00 pm 4.81 ft 1180 cfs
Tue04/23 11:00 pm 4.58 ft 1022 cfs
Wed04/24 05:00 am 4.4 ft 904 cfs
Wed04/24 11:00 am 4.23 ft 807 cfs
Wed04/24 05:00 pm 4.08 ft 723 cfs
Wed04/24 11:00 pm 3.98 ft 673 cfs
Thu04/25 05:00 am 3.92 ft 645 cfs
Thu04/25 11:00 am 3.86 ft 616 cfs
Thu04/25 05:00 pm 3.8 ft 588 cfs
Thu04/25 11:00 pm 3.78 ft 582 cfs
Fri04/26 05:00 am 3.82 ft 599 cfs
Fri04/26 11:00 am 3.79 ft 585 cfs
Fri04/26 05:00 pm 3.74 ft 563 cfs
Fri04/26 11:00 pm 3.7 ft 548 cfs
Sat04/27 05:00 am 3.68 ft 538 cfs
Sat04/27 11:00 am 3.64 ft 522 cfs
Sat04/27 05:00 pm 3.58 ft 496 cfs
Sat04/27 11:00 pm 3.54 ft 481 cfs
Sun04/28 05:00 am 3.52 ft 473 cfs
Sun04/28 11:00 am 3.48 ft 457 cfs
Sun04/28 05:00 pm 3.39 ft 426 cfs
Sun04/28 11:00 pm 3.43 ft 439 cfs
Mon04/29 05:00 am 3.5 ft 468 cfs
Mon04/29 11:00 am 3.54 ft 481 cfs
Mon04/29 05:00 pm 3.5 ft 468 cfs
Mon04/29 11:00 pm 3.47 ft 456 cfs
Tue04/30 05:00 am 3.46 ft 453 cfs
Tue04/30 11:00 am 3.45 ft 446 cfs
Tue04/30 05:00 pm 3.46 ft 451 cfs
Tue04/30 11:00 pm 3.62 ft 513 cfs
Wed05/01 05:00 am 3.83 ft 601 cfs
Wed05/01 11:00 am 3.9 ft 636 cfs
Wed05/01 05:00 pm 3.88 ft 627 cfs
Wed05/01 11:00 pm 3.91 ft 640 cfs
Thu05/02 05:00 am 3.92 ft 641 cfs

Snoqualmie River flood gauge data supplied by the
National Weather Service Northwest River Forecast Center.

Sign up for Floodzilla alerts.